sensor_id;sensor_type;location;lat;lon;timestamp;pressure;altitude;pressure_sealevel;temperature;humidity
48810;BME280;40070;47.322;18.784;2022-10-03T00:00:00;1002.19;;;14.61;72.12
48810;BME280;40070;47.322;18.784;2022-10-03T00:04:36;1002.15;;;14.45;72.46
48810;BME280;40070;47.322;18.784;2022-10-03T00:09:08;1002.32;;;14.48;72.29
48810;BME280;40070;47.322;18.784;2022-10-03T00:16:05;1002.23;;;14.53;72.06
48810;BME280;40070;47.322;18.784;2022-10-03T00:18:22;1002.34;;;14.41;72.79
48810;BME280;40070;47.322;18.784;2022-10-03T00:23:49;1002.17;;;14.29;73.09
48810;BME280;40070;47.322;18.784;2022-10-03T00:25:31;1002.35;;;14.36;73.26
48810;BME280;40070;47.322;18.784;2022-10-03T00:30:00;1002.35;;;14.33;73.39
48810;BME280;40070;47.322;18.784;2022-10-03T00:34:47;1002.25;;;14.32;73.19
48810;BME280;40070;47.322;18.784;2022-10-03T00:37:11;1002.27;;;14.36;73.08
48810;BME280;40070;47.322;18.784;2022-10-03T00:39:27;1002.32;;;14.51;72.51
48810;BME280;40070;47.322;18.784;2022-10-03T00:41:56;1002.27;;;14.21;73.48
48810;BME280;40070;47.322;18.784;2022-10-03T00:44:11;1002.27;;;14.17;73.44
48810;BME280;40070;47.322;18.784;2022-10-03T00:46:31;1002.33;;;14.08;73.55
48810;BME280;40070;47.322;18.784;2022-10-03T01:00:27;1002.47;;;14.19;72.97
48810;BME280;40070;47.322;18.784;2022-10-03T01:02:43;1002.51;;;14.35;72.47
48810;BME280;40070;47.322;18.784;2022-10-03T01:09:36;1002.68;;;14.20;72.94
48810;BME280;40070;47.322;18.784;2022-10-03T01:11:54;1002.65;;;14.32;72.48
48810;BME280;40070;47.322;18.784;2022-10-03T01:14:02;1002.69;;;14.41;72.03
48810;BME280;40070;47.322;18.784;2022-10-03T01:27:59;1002.75;;;14.22;72.76
48810;BME280;40070;47.322;18.784;2022-10-03T01:30:05;1002.77;;;14.18;72.84
48810;BME280;40070;47.322;18.784;2022-10-03T01:34:38;1002.71;;;14.08;73.19
48810;BME280;40070;47.322;18.784;2022-10-03T01:36:46;1002.76;;;14.05;73.43
48810;BME280;40070;47.322;18.784;2022-10-03T01:38:57;1002.73;;;14.15;73.08
48810;BME280;40070;47.322;18.784;2022-10-03T01:41:04;1002.71;;;14.13;72.85
48810;BME280;40070;47.322;18.784;2022-10-03T01:43:16;1002.72;;;14.15;72.91
48810;BME280;40070;47.322;18.784;2022-10-03T01:48:00;1002.72;;;14.23;72.62
48810;BME280;40070;47.322;18.784;2022-10-03T01:50:06;1002.76;;;13.99;73.28
48810;BME280;40070;47.322;18.784;2022-10-03T01:52:19;1002.73;;;14.12;72.93
48810;BME280;40070;47.322;18.784;2022-10-03T01:56:56;1002.71;;;14.22;72.49
48810;BME280;40070;47.322;18.784;2022-10-03T01:59:07;1002.72;;;14.06;73.06
48810;BME280;40070;47.322;18.784;2022-10-03T02:01:25;1002.76;;;13.87;73.33
48810;BME280;40070;47.322;18.784;2022-10-03T02:03:31;1002.73;;;13.69;74.08
48810;BME280;40070;47.322;18.784;2022-10-03T02:05:48;1002.75;;;13.74;74.02
48810;BME280;40070;47.322;18.784;2022-10-03T02:08:02;1002.78;;;13.82;73.70
48810;BME280;40070;47.322;18.784;2022-10-03T02:10:21;1002.80;;;13.81;73.55
48810;BME280;40070;47.322;18.784;2022-10-03T02:12:28;1002.82;;;13.89;73.43
48810;BME280;40070;47.322;18.784;2022-10-03T02:16:58;1002.90;;;13.80;73.68
48810;BME280;40070;47.322;18.784;2022-10-03T02:19:05;1002.93;;;13.65;74.02
48810;BME280;40070;47.322;18.784;2022-10-03T02:21:19;1002.93;;;13.69;73.88
48810;BME280;40070;47.322;18.784;2022-10-03T02:23:23;1002.86;;;13.65;73.92
48810;BME280;40070;47.322;18.784;2022-10-03T02:27:46;1002.90;;;13.65;73.89
48810;BME280;40070;47.322;18.784;2022-10-03T02:42:15;1003.08;;;13.24;75.29
48810;BME280;40070;47.322;18.784;2022-10-03T02:51:18;1003.05;;;13.22;75.30
48810;BME280;40070;47.322;18.784;2022-10-03T02:58:43;1003.17;;;13.44;74.26
48810;BME280;40070;47.322;18.784;2022-10-03T03:03:14;1003.23;;;13.53;73.51
48810;BME280;40070;47.322;18.784;2022-10-03T03:05:41;;;;13.46;73.70
48810;BME280;40070;47.322;18.784;2022-10-03T03:10:36;1003.24;;;13.40;74.01
48810;BME280;40070;47.322;18.784;2022-10-03T03:12:55;1003.20;;;13.37;74.12
48810;BME280;40070;47.322;18.784;2022-10-03T03:20:03;1003.21;;;13.41;73.99
48810;BME280;40070;47.322;18.784;2022-10-03T03:22:22;1003.23;;;13.39;73.76
48810;BME280;40070;47.322;18.784;2022-10-03T03:29:30;1003.27;;;13.26;74.34
48810;BME280;40070;47.322;18.784;2022-10-03T03:31:38;1003.27;;;13.28;74.07
48810;BME280;40070;47.322;18.784;2022-10-03T03:43:27;1003.28;;;13.21;74.01
48810;BME280;40070;47.322;18.784;2022-10-03T03:47:55;1003.32;;;13.09;74.16
48810;BME280;40070;47.322;18.784;2022-10-03T03:52:22;1003.39;;;13.13;74.07
48810;BME280;40070;47.322;18.784;2022-10-03T03:54:51;1003.43;;;13.14;73.80
48810;BME280;40070;47.322;18.784;2022-10-03T03:57:08;1003.47;;;13.10;74.06
48810;BME280;40070;47.322;18.784;2022-10-03T03:59:25;1003.41;;;13.35;73.22
48810;BME280;40070;47.322;18.784;2022-10-03T04:04:08;1003.49;;;13.16;73.80
48810;BME280;40070;47.322;18.784;2022-10-03T04:06:16;1003.55;;;13.17;73.70
48810;BME280;40070;47.322;18.784;2022-10-03T04:17:59;1003.66;;;13.09;73.84
48810;BME280;40070;47.322;18.784;2022-10-03T04:20:14;1003.67;;;13.04;73.93
48810;BME280;40070;47.322;18.784;2022-10-03T04:27:07;1003.56;;;13.38;72.78
48810;BME280;40070;47.322;18.784;2022-10-03T04:31:31;1003.71;;;13.17;73.14
48810;BME280;40070;47.322;18.784;2022-10-03T04:33:52;1003.73;;;13.22;73.10
48810;BME280;40070;47.322;18.784;2022-10-03T04:43:09;1003.91;;;13.35;72.23
48810;BME280;40070;47.322;18.784;2022-10-03T04:45:17;1003.96;;;13.17;73.19
48810;BME280;40070;47.322;18.784;2022-10-03T04:47:25;1004.02;;;13.29;72.55
48810;BME280;40070;47.322;18.784;2022-10-03T04:49:31;1003.99;;;13.20;72.93
48810;BME280;40070;47.322;18.784;2022-10-03T04:51:56;1004.03;;;13.28;72.57
48810;BME280;40070;47.322;18.784;2022-10-03T04:56:38;1004.02;;;13.25;72.77
48810;BME280;40070;47.322;18.784;2022-10-03T04:58:52;1004.09;;;13.28;72.47
48810;BME280;40070;47.322;18.784;2022-10-03T05:03:15;1004.11;;;13.42;72.02
48810;BME280;40070;47.322;18.784;2022-10-03T05:05:37;1004.15;;;13.39;71.78
48810;BME280;40070;47.322;18.784;2022-10-03T05:07:44;1004.13;;;13.35;72.08
48810;BME280;40070;47.322;18.784;2022-10-03T05:09:57;1004.18;;;13.43;71.95
48810;BME280;40070;47.322;18.784;2022-10-03T05:12:05;1004.20;;;13.36;71.76
48810;BME280;40070;47.322;18.784;2022-10-03T05:16:39;1004.26;;;13.32;72.24
48810;BME280;40070;47.322;18.784;2022-10-03T05:19:05;1004.28;;;13.46;71.48
48810;BME280;40070;47.322;18.784;2022-10-03T05:20:58;1004.28;;;13.63;71.11
48810;BME280;40070;47.322;18.784;2022-10-03T05:27:50;1004.32;;;13.92;70.23
48810;BME280;40070;47.322;18.784;2022-10-03T05:30:00;1004.33;;;13.81;70.24
48810;BME280;40070;47.322;18.784;2022-10-03T05:41:21;1004.35;;;14.26;69.15
48810;BME280;40070;47.322;18.784;2022-10-03T05:43:34;1004.31;;;14.13;69.25
48810;BME280;40070;47.322;18.784;2022-10-03T05:46:00;1004.31;;;14.20;69.01
48810;BME280;40070;47.322;18.784;2022-10-03T05:51:06;1004.30;;;13.80;69.10
48810;BME280;40070;47.322;18.784;2022-10-03T05:53:12;1004.31;;;13.65;69.47
48810;BME280;40070;47.322;18.784;2022-10-03T06:05:00;1004.38;;;13.83;67.56
48810;BME280;40070;47.322;18.784;2022-10-03T06:07:17;1004.42;;;13.84;67.26
48810;BME280;40070;47.322;18.784;2022-10-03T06:09:39;1004.45;;;13.82;67.54
48810;BME280;40070;47.322;18.784;2022-10-03T06:16:32;1004.46;;;13.90;67.38
48810;BME280;40070;47.322;18.784;2022-10-03T06:23:26;1004.61;;;14.13;66.99
48810;BME280;40070;47.322;18.784;2022-10-03T06:37:45;1004.72;;;14.61;65.50
48810;BME280;40070;47.322;18.784;2022-10-03T06:44:41;1004.68;;;14.78;64.50
48810;BME280;40070;47.322;18.784;2022-10-03T07:01:06;1004.77;;;14.55;64.06
48810;BME280;40070;47.322;18.784;2022-10-03T07:03:22;1004.79;;;14.81;64.00
48810;BME280;40070;47.322;18.784;2022-10-03T07:26:43;1004.67;;;14.95;62.44
48810;BME280;40070;47.322;18.784;2022-10-03T07:31:22;1004.71;;;15.04;61.87
48810;BME280;40070;47.322;18.784;2022-10-03T07:33:44;1004.63;;;15.20;60.93
48810;BME280;40070;47.322;18.784;2022-10-03T07:41:01;1004.69;;;15.49;60.67
48810;BME280;40070;47.322;18.784;2022-10-03T07:43:13;1004.69;;;15.62;60.33
48810;BME280;40070;47.322;18.784;2022-10-03T07:57:05;1004.84;;;15.73;58.64
48810;BME280;40070;47.322;18.784;2022-10-03T08:01:31;1004.81;;;15.85;58.56
48810;BME280;40070;47.322;18.784;2022-10-03T08:03:54;1004.96;;;15.92;58.74
48810;BME280;40070;47.322;18.784;2022-10-03T08:15:29;1004.70;;;15.99;56.53
48810;BME280;40070;47.322;18.784;2022-10-03T08:17:47;1004.75;;;16.06;56.80
48810;BME280;40070;47.322;18.784;2022-10-03T08:34:16;1004.82;;;16.47;55.32
48810;BME280;40070;47.322;18.784;2022-10-03T08:36:38;1004.82;;;16.97;54.91
48810;BME280;40070;47.322;18.784;2022-10-03T08:46:07;1004.87;;;16.64;53.70
48810;BME280;40070;47.322;18.784;2022-10-03T08:48:20;1004.86;;;16.91;54.24
48810;BME280;40070;47.322;18.784;2022-10-03T08:50:32;1004.91;;;17.10;54.45
48810;BME280;40070;47.322;18.784;2022-10-03T08:57:31;1004.90;;;16.90;54.69
48810;BME280;40070;47.322;18.784;2022-10-03T09:02:15;1004.90;;;16.92;52.31
48810;BME280;40070;47.322;18.784;2022-10-03T09:06:50;1004.95;;;17.03;52.68
48810;BME280;40070;47.322;18.784;2022-10-03T09:09:04;1005.02;;;17.05;53.17
48810;BME280;40070;47.322;18.784;2022-10-03T09:18:21;1005.21;;;16.33;54.54
48810;BME280;40070;47.322;18.784;2022-10-03T09:34:35;1005.19;;;16.31;55.32
48810;BME280;40070;47.322;18.784;2022-10-03T09:36:43;1005.23;;;16.83;54.91
48810;BME280;40070;47.322;18.784;2022-10-03T09:38:56;1005.18;;;16.91;53.63
48810;BME280;40070;47.322;18.784;2022-10-03T09:41:12;1005.17;;;16.80;52.95
48810;BME280;40070;47.322;18.784;2022-10-03T09:43:23;1005.28;;;16.81;53.60
48810;BME280;40070;47.322;18.784;2022-10-03T09:45:50;1005.11;;;16.64;53.51
48810;BME280;40070;47.322;18.784;2022-10-03T09:55:21;1005.15;;;16.80;52.77
48810;BME280;40070;47.322;18.784;2022-10-03T09:57:39;1005.14;;;17.13;52.46
48810;BME280;40070;47.322;18.784;2022-10-03T09:59:51;1005.22;;;17.21;52.01
48810;BME280;40070;47.322;18.784;2022-10-03T10:02:14;1005.15;;;16.88;52.27
48810;BME280;40070;47.322;18.784;2022-10-03T10:04:32;1005.27;;;16.84;53.67
48810;BME280;40070;47.322;18.784;2022-10-03T10:23:27;1005.27;;;16.63;53.17
48810;BME280;40070;47.322;18.784;2022-10-03T10:25:36;1005.29;;;16.64;52.49
48810;BME280;40070;47.322;18.784;2022-10-03T10:32:40;1005.34;;;16.82;52.55
48810;BME280;40070;47.322;18.784;2022-10-03T10:56:08;1005.23;;;17.00;52.87
48810;BME280;40070;47.322;18.784;2022-10-03T10:58:24;1005.23;;;17.06;51.36
48810;BME280;40070;47.322;18.784;2022-10-03T11:05:30;1005.16;;;17.05;52.21
48810;BME280;40070;47.322;18.784;2022-10-03T11:09:54;1005.18;;;17.22;52.31
48810;BME280;40070;47.322;18.784;2022-10-03T11:14:25;1005.22;;;17.00;53.33
48810;BME280;40070;47.322;18.784;2022-10-03T11:16:59;1005.20;;;17.25;53.53
48810;BME280;40070;47.322;18.784;2022-10-03T11:28:51;1005.10;;;17.84;51.83
48810;BME280;40070;47.322;18.784;2022-10-03T11:33:28;1005.11;;;17.71;50.27
48810;BME280;40070;47.322;18.784;2022-10-03T11:35:51;1005.14;;;17.85;50.46
48810;BME280;40070;47.322;18.784;2022-10-03T11:38:12;1005.14;;;17.67;50.10
48810;BME280;40070;47.322;18.784;2022-10-03T11:40:23;1005.22;;;17.23;50.72
48810;BME280;40070;47.322;18.784;2022-10-03T11:45:01;1005.24;;;16.86;52.16
48810;BME280;40070;47.322;18.784;2022-10-03T11:49:45;1005.17;;;17.18;52.61
48810;BME280;40070;47.322;18.784;2022-10-03T11:54:19;1005.20;;;16.79;53.40
48810;BME280;40070;47.322;18.784;2022-10-03T11:56:38;1005.17;;;16.66;54.36
48810;BME280;40070;47.322;18.784;2022-10-03T12:03:27;1005.09;;;17.08;53.99
48810;BME280;40070;47.322;18.784;2022-10-03T12:05:38;1004.98;;;16.81;53.85
48810;BME280;40070;47.322;18.784;2022-10-03T12:10:08;1005.05;;;16.66;53.00
48810;BME280;40070;47.322;18.784;2022-10-03T12:12:26;1005.00;;;16.99;52.91
48810;BME280;40070;47.322;18.784;2022-10-03T12:14:29;1005.06;;;17.12;52.95
48810;BME280;40070;47.322;18.784;2022-10-03T12:21:49;1005.07;;;17.50;50.86
48810;BME280;40070;47.322;18.784;2022-10-03T12:23:53;1005.08;;;17.40;50.02
48810;BME280;40070;47.322;18.784;2022-10-03T12:25:58;1005.12;;;17.28;50.72
48810;BME280;40070;47.322;18.784;2022-10-03T12:28:08;1005.09;;;17.49;50.36
48810;BME280;40070;47.322;18.784;2022-10-03T12:30:14;1005.19;;;17.38;50.47
48810;BME280;40070;47.322;18.784;2022-10-03T12:32:39;1005.11;;;17.17;50.49
48810;BME280;40070;47.322;18.784;2022-10-03T12:35:04;1005.00;;;17.00;50.33
48810;BME280;40070;47.322;18.784;2022-10-03T12:38:12;1005.04;;;17.05;51.33
48810;BME280;40070;47.322;18.784;2022-10-03T12:39:38;1005.02;;;17.02;51.70
48810;BME280;40070;47.322;18.784;2022-10-03T12:53:39;1004.84;;;17.00;51.37
48810;BME280;40070;47.322;18.784;2022-10-03T13:00:23;1005.12;;;16.89;51.79
48810;BME280;40070;47.322;18.784;2022-10-03T13:02:38;1005.33;;;16.76;52.88
48810;BME280;40070;47.322;18.784;2022-10-03T13:16:39;1005.37;;;15.34;60.40
48810;BME280;40070;47.322;18.784;2022-10-03T13:18:47;1005.42;;;15.54;59.77
48810;BME280;40070;47.322;18.784;2022-10-03T13:20:54;1005.47;;;15.69;60.04
48810;BME280;40070;47.322;18.784;2022-10-03T13:23:09;1005.45;;;15.60;58.64
48810;BME280;40070;47.322;18.784;2022-10-03T13:25:39;1005.47;;;15.72;59.39
48810;BME280;40070;47.322;18.784;2022-10-03T13:27:40;1005.48;;;15.74;58.11
48810;BME280;40070;47.322;18.784;2022-10-03T13:30:32;1005.42;;;15.83;57.72
48810;BME280;40070;47.322;18.784;2022-10-03T13:32:06;1005.40;;;15.81;58.00
48810;BME280;40070;47.322;18.784;2022-10-03T13:34:18;1005.40;;;15.76;58.16
48810;BME280;40070;47.322;18.784;2022-10-03T13:38:54;1005.36;;;16.13;58.45
48810;BME280;40070;47.322;18.784;2022-10-03T13:43:33;1005.31;;;16.01;57.71
48810;BME280;40070;47.322;18.784;2022-10-03T13:45:45;1005.23;;;16.05;58.23
48810;BME280;40070;47.322;18.784;2022-10-03T13:48:25;1005.18;;;15.98;57.85
48810;BME280;40070;47.322;18.784;2022-10-03T13:50:24;1005.18;;;16.28;57.42
48810;BME280;40070;47.322;18.784;2022-10-03T13:52:41;1005.31;;;16.38;57.11
48810;BME280;40070;47.322;18.784;2022-10-03T13:57:04;1005.21;;;16.26;55.20
48810;BME280;40070;47.322;18.784;2022-10-03T13:59:21;1005.27;;;16.18;55.39
48810;BME280;40070;47.322;18.784;2022-10-03T14:01:37;1005.28;;;16.15;54.86
48810;BME280;40070;47.322;18.784;2022-10-03T14:13:24;1005.18;;;16.02;54.79
48810;BME280;40070;47.322;18.784;2022-10-03T14:18:07;1005.18;;;16.08;54.70
48810;BME280;40070;47.322;18.784;2022-10-03T14:20:23;1005.24;;;16.08;54.61
48810;BME280;40070;47.322;18.784;2022-10-03T14:22:44;1005.26;;;16.13;54.86
48810;BME280;40070;47.322;18.784;2022-10-03T14:29:46;1005.19;;;16.16;54.34
48810;BME280;40070;47.322;18.784;2022-10-03T14:31:58;1005.25;;;16.22;53.74
48810;BME280;40070;47.322;18.784;2022-10-03T14:34:07;1005.14;;;16.12;53.81
48810;BME280;40070;47.322;18.784;2022-10-03T14:36:23;1005.22;;;16.19;53.61
48810;BME280;40070;47.322;18.784;2022-10-03T14:40:47;1005.26;;;16.29;53.58
48810;BME280;40070;47.322;18.784;2022-10-03T14:42:53;1005.34;;;16.27;53.40
48810;BME280;40070;47.322;18.784;2022-10-03T14:45:02;1005.30;;;16.18;53.18
48810;BME280;40070;47.322;18.784;2022-10-03T14:47:15;1005.18;;;16.26;53.21
48810;BME280;40070;47.322;18.784;2022-10-03T14:49:20;1005.21;;;16.15;53.80
48810;BME280;40070;47.322;18.784;2022-10-03T14:51:25;1005.22;;;16.21;52.82
48810;BME280;40070;47.322;18.784;2022-10-03T14:53:34;1005.14;;;16.11;53.63
48810;BME280;40070;47.322;18.784;2022-10-03T14:55:44;1005.19;;;16.06;53.76
48810;BME280;40070;47.322;18.784;2022-10-03T14:57:54;1005.14;;;16.12;54.34
48810;BME280;40070;47.322;18.784;2022-10-03T15:00:00;1005.16;;;15.97;54.27
48810;BME280;40070;47.322;18.784;2022-10-03T15:02:26;1005.13;;;15.92;54.59
48810;BME280;40070;47.322;18.784;2022-10-03T15:06:51;1005.12;;;15.85;55.17
48810;BME280;40070;47.322;18.784;2022-10-03T15:08:56;1005.11;;;15.92;55.35
48810;BME280;40070;47.322;18.784;2022-10-03T15:11:05;1005.17;;;16.07;54.92
48810;BME280;40070;47.322;18.784;2022-10-03T15:13:09;1005.06;;;16.08;55.09
48810;BME280;40070;47.322;18.784;2022-10-03T15:15:47;1005.18;;;15.89;54.96
48810;BME280;40070;47.322;18.784;2022-10-03T15:17:53;1005.15;;;15.98;55.11
48810;BME280;40070;47.322;18.784;2022-10-03T15:19:57;1005.14;;;15.92;55.28
48810;BME280;40070;47.322;18.784;2022-10-03T15:22:04;1005.15;;;15.90;55.91
48810;BME280;40070;47.322;18.784;2022-10-03T15:24:12;1005.17;;;15.98;55.14
48810;BME280;40070;47.322;18.784;2022-10-03T15:26:22;1005.20;;;15.80;56.01
48810;BME280;40070;47.322;18.784;2022-10-03T15:28:27;1005.20;;;15.88;55.95
48810;BME280;40070;47.322;18.784;2022-10-03T15:30:38;1005.25;;;15.75;55.80
48810;BME280;40070;47.322;18.784;2022-10-03T15:32:41;1005.22;;;15.69;56.38
48810;BME280;40070;47.322;18.784;2022-10-03T15:34:46;1005.19;;;15.70;56.39
48810;BME280;40070;47.322;18.784;2022-10-03T15:36:54;1005.22;;;15.71;56.25
48810;BME280;40070;47.322;18.784;2022-10-03T15:38:59;1005.18;;;15.57;55.64
48810;BME280;40070;47.322;18.784;2022-10-03T15:41:10;1005.22;;;15.52;55.21
48810;BME280;40070;47.322;18.784;2022-10-03T15:45:40;1005.22;;;15.51;55.25
48810;BME280;40070;47.322;18.784;2022-10-03T15:47:43;1005.13;;;15.63;54.58
48810;BME280;40070;47.322;18.784;2022-10-03T15:50:05;1005.17;;;15.69;54.55
48810;BME280;40070;47.322;18.784;2022-10-03T15:52:16;1005.15;;;15.65;54.80
48810;BME280;40070;47.322;18.784;2022-10-03T15:54:29;1005.17;;;15.56;55.07
48810;BME280;40070;47.322;18.784;2022-10-03T15:56:32;1005.21;;;15.56;55.13
48810;BME280;40070;47.322;18.784;2022-10-03T16:01:00;1005.22;;;15.85;54.58
48810;BME280;40070;47.322;18.784;2022-10-03T16:05:29;1005.20;;;15.83;54.28
48810;BME280;40070;47.322;18.784;2022-10-03T16:07:38;1005.23;;;15.82;54.40
48810;BME280;40070;47.322;18.784;2022-10-03T16:09:54;1005.20;;;15.84;54.07
48810;BME280;40070;47.322;18.784;2022-10-03T16:14:32;1005.28;;;15.76;54.41
48810;BME280;40070;47.322;18.784;2022-10-03T16:16:40;1005.30;;;15.74;54.56
48810;BME280;40070;47.322;18.784;2022-10-03T16:21:05;1005.37;;;15.72;54.20
48810;BME280;40070;47.322;18.784;2022-10-03T16:23:21;1005.40;;;15.69;54.28
48810;BME280;40070;47.322;18.784;2022-10-03T16:25:30;1005.48;;;15.64;55.53
48810;BME280;40070;47.322;18.784;2022-10-03T16:27:37;1005.47;;;15.65;54.42
48810;BME280;40070;47.322;18.784;2022-10-03T16:29:48;1005.45;;;15.58;54.32
48810;BME280;40070;47.322;18.784;2022-10-03T16:31:57;1005.43;;;15.56;54.23
48810;BME280;40070;47.322;18.784;2022-10-03T16:34:06;1005.47;;;15.50;54.15
48810;BME280;40070;47.322;18.784;2022-10-03T16:36:16;1005.52;;;15.53;54.21
48810;BME280;40070;47.322;18.784;2022-10-03T16:38:26;1005.52;;;15.57;54.31
48810;BME280;40070;47.322;18.784;2022-10-03T16:40:31;1005.52;;;15.60;53.79
48810;BME280;40070;47.322;18.784;2022-10-03T16:42:37;1005.58;;;15.51;54.08
48810;BME280;40070;47.322;18.784;2022-10-03T16:44:50;1005.56;;;15.54;53.82
48810;BME280;40070;47.322;18.784;2022-10-03T16:46:53;1005.57;;;15.34;54.08
48810;BME280;40070;47.322;18.784;2022-10-03T16:48:59;1005.59;;;15.42;54.08
48810;BME280;40070;47.322;18.784;2022-10-03T16:51:03;1005.57;;;15.43;54.16
48810;BME280;40070;47.322;18.784;2022-10-03T16:53:07;1005.61;;;15.58;53.97
48810;BME280;40070;47.322;18.784;2022-10-03T16:55:14;1005.62;;;15.68;54.63
48810;BME280;40070;47.322;18.784;2022-10-03T16:57:18;1005.67;;;15.60;53.54
48810;BME280;40070;47.322;18.784;2022-10-03T16:59:22;1005.69;;;15.54;53.67
48810;BME280;40070;47.322;18.784;2022-10-03T17:01:30;1005.67;;;15.69;55.48
48810;BME280;40070;47.322;18.784;2022-10-03T17:03:38;1005.64;;;15.76;54.82
48810;BME280;40070;47.322;18.784;2022-10-03T17:05:44;1005.63;;;15.76;55.08
48810;BME280;40070;47.322;18.784;2022-10-03T17:07:49;1005.66;;;15.80;55.28
48810;BME280;40070;47.322;18.784;2022-10-03T17:09:53;1005.67;;;15.86;54.64
48810;BME280;40070;47.322;18.784;2022-10-03T17:11:57;1005.71;;;15.86;55.13
48810;BME280;40070;47.322;18.784;2022-10-03T17:14:00;1005.70;;;15.79;55.03
48810;BME280;40070;47.322;18.784;2022-10-03T17:16:11;1005.71;;;15.80;55.34
48810;BME280;40070;47.322;18.784;2022-10-03T17:18:27;1005.73;;;15.46;55.53
48810;BME280;40070;47.322;18.784;2022-10-03T17:20:45;1005.71;;;15.48;54.92
48810;BME280;40070;47.322;18.784;2022-10-03T17:22:51;1005.75;;;15.72;55.25
48810;BME280;40070;47.322;18.784;2022-10-03T17:25:06;1005.74;;;15.69;54.02
48810;BME280;40070;47.322;18.784;2022-10-03T17:27:14;1005.77;;;15.64;55.18
48810;BME280;40070;47.322;18.784;2022-10-03T17:29:22;1005.77;;;15.69;55.39
48810;BME280;40070;47.322;18.784;2022-10-03T17:31:34;1005.78;;;15.66;55.56
48810;BME280;40070;47.322;18.784;2022-10-03T17:33:40;1005.84;;;15.39;55.35
48810;BME280;40070;47.322;18.784;2022-10-03T17:35:48;1005.79;;;15.34;55.06
48810;BME280;40070;47.322;18.784;2022-10-03T17:37:57;1005.88;;;15.49;54.84
48810;BME280;40070;47.322;18.784;2022-10-03T17:40:11;1005.87;;;15.37;54.96
48810;BME280;40070;47.322;18.784;2022-10-03T17:47:04;1005.87;;;15.52;54.83
48810;BME280;40070;47.322;18.784;2022-10-03T17:49:22;1005.86;;;15.63;55.47
48810;BME280;40070;47.322;18.784;2022-10-03T17:51:29;1005.86;;;15.49;55.87
48810;BME280;40070;47.322;18.784;2022-10-03T17:53:32;1005.88;;;15.65;55.33
48810;BME280;40070;47.322;18.784;2022-10-03T17:55:38;1005.87;;;15.54;54.98
48810;BME280;40070;47.322;18.784;2022-10-03T17:57:48;1005.79;;;15.43;55.71
48810;BME280;40070;47.322;18.784;2022-10-03T17:59:58;1005.77;;;15.36;56.25
48810;BME280;40070;47.322;18.784;2022-10-03T18:02:22;1005.83;;;15.63;56.00
48810;BME280;40070;47.322;18.784;2022-10-03T18:04:19;1005.84;;;15.61;56.04
48810;BME280;40070;47.322;18.784;2022-10-03T18:08:43;1005.83;;;15.35;56.45
48810;BME280;40070;47.322;18.784;2022-10-03T18:10:46;1005.86;;;15.03;56.42
48810;BME280;40070;47.322;18.784;2022-10-03T18:12:50;1005.90;;;15.07;56.78
48810;BME280;40070;47.322;18.784;2022-10-03T18:15:08;1005.88;;;14.90;56.18
48810;BME280;40070;47.322;18.784;2022-10-03T18:17:30;1005.93;;;14.76;56.43
48810;BME280;40070;47.322;18.784;2022-10-03T18:20:03;1006.11;;;14.66;56.27
48810;BME280;40070;47.322;18.784;2022-10-03T18:24:51;1005.96;;;14.70;55.87
48810;BME280;40070;47.322;18.784;2022-10-03T18:29:24;1005.97;;;14.46;55.64
48810;BME280;40070;47.322;18.784;2022-10-03T18:31:30;1005.89;;;14.38;55.80
48810;BME280;40070;47.322;18.784;2022-10-03T18:33:39;1005.91;;;14.34;55.79
48810;BME280;40070;47.322;18.784;2022-10-03T18:35:43;1005.89;;;14.39;55.84
48810;BME280;40070;47.322;18.784;2022-10-03T18:40:02;1005.90;;;14.36;55.97
48810;BME280;40070;47.322;18.784;2022-10-03T18:42:06;1005.87;;;14.35;56.02
48810;BME280;40070;47.322;18.784;2022-10-03T18:44:11;1005.92;;;14.34;56.12
48810;BME280;40070;47.322;18.784;2022-10-03T18:46:21;1005.93;;;14.18;56.33
48810;BME280;40070;47.322;18.784;2022-10-03T18:48:48;1005.88;;;14.24;55.99
48810;BME280;40070;47.322;18.784;2022-10-03T18:51:09;1005.89;;;13.98;56.83
48810;BME280;40070;47.322;18.784;2022-10-03T18:53:15;1005.81;;;13.97;56.66
48810;BME280;40070;47.322;18.784;2022-10-03T18:55:22;1005.85;;;14.01;56.09
48810;BME280;40070;47.322;18.784;2022-10-03T18:57:34;1005.82;;;14.11;56.10
48810;BME280;40070;47.322;18.784;2022-10-03T18:59:41;1005.79;;;14.05;56.34
48810;BME280;40070;47.322;18.784;2022-10-03T19:01:50;1005.81;;;14.22;55.72
48810;BME280;40070;47.322;18.784;2022-10-03T19:03:57;1005.85;;;14.31;55.40
48810;BME280;40070;47.322;18.784;2022-10-03T19:08:31;1005.83;;;14.07;56.02
48810;BME280;40070;47.322;18.784;2022-10-03T19:12:58;1005.93;;;14.20;55.62
48810;BME280;40070;47.322;18.784;2022-10-03T19:15:29;1005.97;;;14.04;55.92
48810;BME280;40070;47.322;18.784;2022-10-03T19:19:57;1006.08;;;14.26;55.60
48810;BME280;40070;47.322;18.784;2022-10-03T19:22:03;1006.09;;;13.96;56.29
48810;BME280;40070;47.322;18.784;2022-10-03T19:24:12;1006.08;;;14.00;56.28
48810;BME280;40070;47.322;18.784;2022-10-03T19:26:29;1006.10;;;14.10;55.92
48810;BME280;40070;47.322;18.784;2022-10-03T19:28:33;1006.12;;;13.98;56.08
48810;BME280;40070;47.322;18.784;2022-10-03T19:30:38;1006.15;;;13.97;56.60
48810;BME280;40070;47.322;18.784;2022-10-03T19:34:59;1006.19;;;14.13;56.42
48810;BME280;40070;47.322;18.784;2022-10-03T19:39:37;1006.17;;;14.11;56.88
48810;BME280;40070;47.322;18.784;2022-10-03T19:42:25;1006.17;;;13.97;57.44
48810;BME280;40070;47.322;18.784;2022-10-03T19:43:54;1006.19;;;14.02;57.39
48810;BME280;40070;47.322;18.784;2022-10-03T19:46:00;1006.22;;;13.83;58.14
48810;BME280;40070;47.322;18.784;2022-10-03T19:48:10;1006.19;;;13.87;58.18
48810;BME280;40070;47.322;18.784;2022-10-03T19:50:19;1006.16;;;13.74;58.49
48810;BME280;40070;47.322;18.784;2022-10-03T19:52:32;1006.17;;;13.75;58.56
48810;BME280;40070;47.322;18.784;2022-10-03T19:54:49;1006.20;;;13.74;58.66
48810;BME280;40070;47.322;18.784;2022-10-03T19:56:53;1006.16;;;13.64;59.11